createdAt,value
2019-06-10T00:00:01.444Z,4
2019-06-10T00:05:05.295Z,4
2019-06-10T00:10:06.068Z,4
2019-06-10T00:15:07.880Z,3
2019-06-10T00:20:11.107Z,3
2019-06-10T00:25:12.743Z,3
2019-06-10T00:30:15.196Z,3
2019-06-10T00:35:17.711Z,3
2019-06-10T00:40:21.433Z,4
2019-06-10T00:45:22.509Z,3
2019-06-10T00:50:24.923Z,4
2019-06-10T00:55:27.412Z,4
2019-06-10T01:00:31.737Z,4
2019-06-10T01:05:32.258Z,4
2019-06-10T01:10:34.811Z,4
2019-06-10T01:15:37.225Z,4
2019-06-10T01:20:41.199Z,4
2019-06-10T01:25:42.646Z,4
2019-06-10T01:30:44.459Z,5
2019-06-10T01:35:46.895Z,4
2019-06-10T01:40:50.899Z,5
2019-06-10T01:45:51.795Z,5
2019-06-10T01:50:54.226Z,4
2019-06-10T01:55:56.691Z,4
2019-06-10T02:01:01.262Z,5
2019-06-10T02:06:01.708Z,5
2019-06-10T02:11:04.005Z,5
2019-06-10T02:16:06.498Z,5
2019-06-10T02:21:11.493Z,5
2019-06-10T02:26:13.572Z,6
2019-06-10T02:31:17.161Z,5
2019-06-10T02:36:20.016Z,6
2019-06-10T02:41:23.803Z,6
2019-06-10T02:46:27.793Z,6
2019-06-10T02:51:30.140Z,7
2019-06-10T02:56:30.660Z,8
2019-06-10T03:01:32.747Z,8
2019-06-10T03:06:36.080Z,8
2019-06-10T03:11:36.873Z,9
2019-06-10T03:16:35.742Z,8
2019-06-10T03:21:38.208Z,9
2019-06-10T03:31:47.522Z,9
2019-06-10T03:36:45.509Z,9
2019-06-10T03:41:47.998Z,9
2019-06-10T03:46:52.319Z,9
2019-06-10T03:56:55.349Z,9
2019-06-10T04:01:57.694Z,9
2019-06-10T04:07:03.561Z,10
2019-06-10T04:12:02.694Z,10
2019-06-10T04:17:05.029Z,10
2019-06-10T04:22:07.486Z,9
2019-06-10T04:27:12.120Z,10
2019-06-10T04:32:12.429Z,10
2019-06-10T04:37:14.870Z,9
2019-06-10T04:42:18.326Z,10
2019-06-10T04:47:21.085Z,9
2019-06-10T04:52:23.564Z,9
2019-06-10T04:57:26.415Z,9
2019-06-10T05:02:28.463Z,11
2019-06-10T05:07:34.059Z,9
2019-06-10T05:12:32.701Z,10
2019-06-10T05:17:34.541Z,8
2019-06-10T05:22:36.811Z,9
2019-06-10T05:27:39.232Z,9
2019-06-10T05:32:43.169Z,9
2019-06-10T05:37:44.102Z,9
2019-06-10T05:42:46.541Z,10
2019-06-10T05:47:49.013Z,9
2019-06-10T05:52:52.011Z,8
2019-06-10T05:57:53.897Z,8
2019-06-10T06:02:56.310Z,8
2019-06-10T06:08:04.263Z,9
2019-06-10T06:13:03.047Z,8
2019-06-10T06:18:09.339Z,8
2019-06-10T06:23:08.826Z,8
2019-06-10T06:28:08.552Z,8
2019-06-10T06:33:13.330Z,8
2019-06-10T06:38:13.407Z,7
2019-06-10T06:43:15.841Z,8
2019-06-10T06:48:18.298Z,8
2019-06-10T06:53:29.789Z,7
2019-06-10T06:58:23.302Z,7
2019-06-10T07:03:25.606Z,7
2019-06-10T07:08:28.126Z,8
2019-06-10T07:13:31.278Z,7
2019-06-10T07:18:37.534Z,6
2019-06-10T07:23:37.822Z,6
2019-06-10T07:28:40.247Z,6
2019-06-10T07:33:42.793Z,7
2019-06-10T07:38:48.082Z,8
2019-06-10T07:43:49.374Z,7
2019-06-10T07:48:48.309Z,7
2019-06-10T07:53:52.299Z,7
2019-06-10T07:58:53.030Z,7
2019-06-10T08:03:54.902Z,7
2019-06-10T08:08:57.360Z,7
2019-06-10T08:13:59.818Z,7
2019-06-10T08:19:29.246Z,7
2019-06-10T08:24:04.809Z,8
2019-06-10T08:29:07.183Z,8
2019-06-10T08:34:09.586Z,8
2019-06-10T08:39:15.732Z,8
2019-06-10T08:44:14.525Z,7
2019-06-10T08:49:16.890Z,8
2019-06-10T08:54:19.385Z,7
2019-06-10T08:59:23.053Z,7
2019-06-10T09:04:24.388Z,8
2019-06-10T09:09:26.773Z,7
2019-06-10T09:14:29.116Z,7
2019-06-10T09:19:33.161Z,7
2019-06-10T09:24:34.219Z,7
2019-06-10T09:29:36.505Z,7
2019-06-10T09:34:40.148Z,7
2019-06-10T09:39:47.111Z,7
2019-06-10T09:44:46.797Z,7
2019-06-10T09:49:49.124Z,7
2019-06-10T09:54:52.543Z,6
2019-06-10T09:59:55.791Z,7
2019-06-10T10:04:58.039Z,7
2019-06-10T10:09:56.961Z,6
2019-06-10T10:20:03.162Z,6
2019-06-10T10:25:03.380Z,7
2019-06-10T10:30:05.780Z,6
2019-06-10T10:35:08.181Z,7
2019-06-10T10:40:12.276Z,6
2019-06-10T10:45:13.869Z,6
2019-06-10T10:50:15.485Z,6
2019-06-10T10:55:18.092Z,6
2019-06-10T11:00:22.503Z,6
2019-06-10T11:05:23.191Z,6
2019-06-10T11:10:25.243Z,5
2019-06-10T11:15:27.717Z,6
2019-06-10T11:20:30.844Z,6
2019-06-10T11:25:33.180Z,5
2019-06-10T11:30:35.032Z,6
2019-06-10T11:35:37.506Z,6
2019-06-10T11:40:42.654Z,6
2019-06-10T11:45:48.248Z,6
2019-06-10T11:50:44.962Z,6
2019-06-10T11:55:47.620Z,6
2019-06-10T12:00:50.962Z,6
2019-06-10T12:05:55.458Z,6
2019-06-10T12:10:58.374Z,6
2019-06-10T12:21:03.520Z,6
2019-06-10T12:26:04.715Z,6
2019-06-10T12:31:06.983Z,6
2019-06-10T12:36:07.530Z,6
2019-06-10T12:41:11.002Z,6
2019-06-10T12:46:12.696Z,6
2019-06-10T12:51:14.207Z,6
2019-06-10T12:56:16.611Z,7
2019-06-10T13:01:19.011Z,7
2019-06-10T13:06:23.474Z,6
2019-06-10T13:11:23.860Z,6
2019-06-10T13:16:26.295Z,6
2019-06-10T13:21:28.912Z,6
2019-06-10T13:26:32.958Z,6
2019-06-10T13:31:33.833Z,6
2019-06-10T13:36:36.125Z,6
2019-06-10T13:41:43.720Z,6
2019-06-10T13:46:42.495Z,5
2019-06-10T13:51:44.032Z,6
2019-06-10T13:56:47.610Z,6
2019-06-10T14:01:48.328Z,6
2019-06-10T14:06:56.675Z,5
2019-06-10T14:11:53.161Z,6
2019-06-10T14:16:55.590Z,5
2019-06-10T14:21:58.108Z,6
2019-06-10T14:27:02.846Z,6
2019-06-10T14:32:04.040Z,6
2019-06-10T14:37:05.760Z,5
2019-06-10T14:42:08.584Z,5
2019-06-10T14:47:11.497Z,5
2019-06-10T14:52:14.898Z,5
2019-06-10T14:57:16.691Z,6
2019-06-10T15:02:17.621Z,6
2019-06-10T15:07:20.893Z,6
2019-06-10T15:12:22.845Z,5
2019-06-10T15:17:24.953Z,5
2019-06-10T15:22:27.336Z,5
2019-06-10T15:27:31.354Z,5
2019-06-10T15:32:34.699Z,6
2019-06-10T15:37:34.714Z,5
2019-06-10T15:42:37.223Z,5
2019-06-10T15:47:39.543Z,5
2019-06-10T15:52:43.117Z,5
2019-06-10T15:57:46.432Z,5
2019-06-10T16:02:46.899Z,5
2019-06-10T16:07:49.404Z,5
2019-06-10T16:12:52.703Z,5
2019-06-10T16:17:54.246Z,5
2019-06-10T16:22:56.653Z,5
2019-06-10T16:27:59.150Z,5
2019-06-10T16:33:02.844Z,4
2019-06-10T16:38:03.988Z,5
2019-06-10T16:43:06.409Z,5
2019-06-10T16:48:09.041Z,5
2019-06-10T16:53:13.602Z,5
2019-06-10T16:58:13.749Z,5
2019-06-10T17:03:18.030Z,6
2019-06-10T17:08:19.944Z,5
2019-06-10T17:13:23.550Z,5
2019-06-10T17:18:25.243Z,5
2019-06-10T17:23:30.676Z,6
2019-06-10T17:28:31.140Z,5
2019-06-10T17:33:34.585Z,7
2019-06-10T17:38:33.306Z,6
2019-06-10T17:43:35.814Z,6
2019-06-10T17:48:38.166Z,5
2019-06-10T17:53:42.669Z,6
2019-06-10T17:58:51.441Z,5
2019-06-10T18:03:45.535Z,6
2019-06-10T18:08:47.960Z,5
2019-06-10T18:13:50.379Z,6
2019-06-10T18:18:52.882Z,6
2019-06-10T18:23:55.249Z,5
2019-06-10T18:29:04.690Z,6
2019-06-10T18:34:02.346Z,7
2019-06-10T18:39:03.013Z,5
2019-06-10T18:44:18.719Z,6
2019-06-10T18:49:07.525Z,6
2019-06-10T18:54:09.913Z,6
2019-06-10T18:59:17.542Z,6
2019-06-10T19:04:14.824Z,5
2019-06-10T19:09:17.235Z,5
2019-06-10T19:14:19.673Z,6
2019-06-10T19:19:22.879Z,6
2019-06-10T19:24:24.552Z,5
2019-06-10T19:29:33.339Z,6
2019-06-10T19:34:29.440Z,6
2019-06-10T19:39:35.010Z,6
2019-06-10T19:44:35.739Z,5
2019-06-10T19:49:36.842Z,4
2019-06-10T19:54:39.319Z,5
2019-06-10T19:59:55.697Z,4
2019-06-10T20:04:45.635Z,4
2019-06-10T20:09:46.548Z,4
2019-06-10T20:14:48.955Z,4
2019-06-10T20:24:53.898Z,4
2019-06-10T20:30:06.884Z,4
2019-06-10T20:34:58.784Z,4
2019-06-10T20:40:03.543Z,4
2019-06-10T20:45:04.950Z,3
2019-06-10T20:50:06.167Z,4
2019-06-10T20:55:08.494Z,4
2019-06-10T21:00:22.089Z,4
2019-06-10T21:05:13.495Z,4
2019-06-10T21:10:16.920Z,5
2019-06-10T21:15:18.267Z,4
2019-06-10T21:25:23.409Z,4
2019-06-10T21:30:36.901Z,4
2019-06-10T21:35:28.037Z,4
2019-06-10T21:40:32.825Z,4
2019-06-10T21:45:32.996Z,4
2019-06-10T21:50:35.348Z,4
2019-06-10T21:55:37.861Z,4
2019-06-10T22:00:52.560Z,5
2019-06-10T22:05:44.171Z,5
2019-06-10T22:10:45.888Z,5
2019-06-10T22:15:48.339Z,4
2019-06-10T22:20:51.375Z,5
2019-06-10T22:25:54.185Z,5
2019-06-10T22:31:11.952Z,5
2019-06-10T22:35:57.520Z,5
2019-06-10T22:40:59.773Z,6
2019-06-10T22:51:04.697Z,6
2019-06-10T22:56:07.162Z,6
2019-06-10T23:01:12.448Z,6
2019-06-10T23:06:12.548Z,6
2019-06-10T23:11:14.469Z,6
2019-06-10T23:16:16.849Z,6
2019-06-10T23:21:19.441Z,6
2019-06-10T23:26:22.536Z,6
2019-06-10T23:31:24.177Z,7
2019-06-10T23:36:26.618Z,6
2019-06-10T23:41:29.098Z,7
2019-06-10T23:46:32.019Z,7
2019-06-10T23:51:33.946Z,6
2019-06-10T23:56:36.382Z,7
